Time;durP1;ratioP1;P1;durP2;ratioP2;P2;SDS_P1;SDS_P2;PMS_P1;PMS_P2;Temp;Humidity;BMP_temperature;BMP_pressure;BME280_temperature;BME280_humidity;BME280_pressure;Samples;Min_cycle;Max_cycle;Signal;HPM_P1;HPM_P2
2022/09/08 00:02:07;;;;;;;7.50;4.53;;;;;;;18.18;73.37;94916.03;4993037;28;20208;-79
2022/09/08 00:04:34;;;;;;;7.23;4.73;;;;;;;18.58;73.85;94981.28;4992463;28;20197;-78
2022/09/08 00:07:01;;;;;;;5.53;4.20;;;;;;;18.53;73.91;94980.03;4992746;28;20217;-77
2022/09/08 00:09:31;;;;;;;5.97;4.60;;;;;;;18.50;74.02;94992.53;4993025;28;20185;-80
2022/09/08 00:11:58;;;;;;;7.03;4.57;;;;;;;18.24;74.09;94952.34;4992874;28;20284;-78
2022/09/08 00:14:25;;;;;;;6.90;5.03;;;;;;;18.43;74.16;94981.25;4992475;28;20189;-80
2022/09/08 00:16:52;;;;;;;6.80;5.43;;;;;;;18.40;74.24;94979.06;4992687;28;20192;-78
2022/09/08 00:19:19;;;;;;;6.10;5.00;;;;;;;18.37;74.61;94985.38;4992449;28;20193;-77
2022/09/08 00:21:45;;;;;;;5.17;4.77;;;;;;;18.35;75.34;94989.94;4992855;28;20196;-77
2022/09/08 00:24:12;;;;;;;6.83;4.60;;;;;;;18.13;75.14;94950.19;4992905;28;20200;-78
2022/09/08 00:26:40;;;;;;;5.03;4.63;;;;;;;18.13;75.02;94952.78;4993036;28;20235;-77
2022/09/08 00:29:07;;;;;;;6.13;4.63;;;;;;;18.25;75.37;94979.03;4993235;28;20204;-80
2022/09/08 00:31:38;;;;;;;5.20;4.70;;;;;;;18.28;75.31;94987.25;4999215;28;20200;-80
2022/09/08 00:34:05;;;;;;;4.70;4.30;;;;;;;18.21;75.15;94968.22;5005615;28;20189;-78
2022/09/08 00:36:33;;;;;;;5.43;4.60;;;;;;;18.06;75.64;94951.91;5016090;28;20193;-79
2022/09/08 00:39:00;;;;;;;6.33;5.03;;;;;;;18.25;75.40;94982.41;5015454;28;20177;-78
2022/09/08 00:41:29;;;;;;;11.30;5.20;;;;;;;18.24;75.32;94985.19;5003494;28;20703;-81
2022/09/08 00:44:00;;;;;;;6.33;4.90;;;;;;;17.75;75.79;94915.81;4992787;28;20189;-79
2022/09/08 00:46:30;;;;;;;4.80;4.30;;;;;;;18.19;75.94;94988.31;4992182;28;20252;-80
2022/09/08 00:49:04;;;;;;;5.33;4.83;;;;;;;18.10;76.11;94984.22;4992147;28;20212;-79
2022/09/08 00:51:32;;;;;;;6.07;5.27;;;;;;;18.19;76.13;94990.09;4991965;28;20201;-80
2022/09/08 00:53:59;;;;;;;6.03;4.70;;;;;;;18.16;75.98;94993.03;4991862;28;20196;-76
2022/09/08 00:56:28;;;;;;;5.33;4.83;;;;;;;18.10;76.37;94996.34;4991731;28;20196;-79
2022/09/08 00:58:59;;;;;;;4.80;4.40;;;;;;;17.97;76.23;94974.47;4991796;28;20185;-80
2022/09/08 01:01:26;;;;;;;5.53;4.60;;;;;;;18.03;76.72;94986.69;4991863;28;20182;-80
2022/09/08 01:03:53;;;;;;;5.63;5.13;;;;;;;18.08;76.54;94999.09;4991681;28;20573;-80
2022/09/08 01:15:11;;;;;;;5.13;4.63;;;;;;;17.99;76.70;94972.50;4964959;28;20268;-80
2022/09/08 01:17:38;;;;;;;8.97;5.40;;;;;;;17.98;77.19;94978.66;4972027;28;20257;-80
2022/09/08 01:20:07;;;;;;;7.83;4.83;;;;;;;17.95;77.09;94975.59;4972161;28;20212;-81
2022/09/08 01:22:53;;;;;;;5.57;4.80;;;;;;;17.88;77.47;94972.13;4972067;28;20194;-78
2022/09/08 01:25:36;;;;;;;8.77;5.77;;;;;;;17.80;77.32;94963.44;4971777;28;20717;-79
2022/09/08 01:28:10;;;;;;;5.20;4.80;;;;;;;17.97;76.52;94971.88;4971641;28;20234;-80
2022/09/08 01:30:37;;;;;;;4.90;4.43;;;;;;;18.00;76.93;94981.06;4971882;28;20279;-80
2022/09/08 01:33:07;;;;;;;7.87;5.53;;;;;;;17.89;76.69;94976.31;4971466;28;20189;-78
2022/09/08 01:35:38;;;;;;;10.90;5.27;;;;;;;17.94;76.91;94992.13;4971906;28;20198;-80
2022/09/08 01:38:06;;;;;;;5.70;5.10;;;;;;;17.64;77.08;94955.78;4972032;28;20600;-79
2022/09/08 01:40:32;;;;;;;4.93;4.53;;;;;;;17.78;77.08;94978.31;4971824;28;20200;-79
2022/09/08 01:42:59;;;;;;;10.10;5.40;;;;;;;17.80;77.48;94986.72;4971383;28;20265;-79
2022/09/08 01:45:28;;;;;;;6.37;5.20;;;;;;;17.77;77.18;94987.06;4971353;28;20197;-80
2022/09/08 01:47:54;;;;;;;5.67;5.17;;;;;;;16.71;77.33;94829.34;4971493;28;20267;-79
2022/09/08 01:50:21;;;;;;;6.73;5.50;;;;;;;17.69;77.79;94991.47;4971852;28;20196;-79
2022/09/08 01:52:49;;;;;;;7.87;5.33;;;;;;;17.68;78.04;94995.06;4971375;28;20189;-79
2022/09/08 01:55:15;;;;;;;6.07;5.47;;;;;;;17.65;78.15;94997.97;4971228;28;20213;-79
2022/09/08 01:57:43;;;;;;;8.40;5.50;;;;;;;17.64;78.17;94993.78;4971129;28;20665;-79
2022/09/08 02:00:10;;;;;;;6.80;5.33;;;;;;;17.62;78.07;94988.81;4970449;28;20681;-81
2022/09/08 02:02:39;;;;;;;5.80;5.00;;;;;;;17.63;78.22;94979.25;4971300;28;20200;-80
2022/09/08 02:05:06;;;;;;;8.50;5.63;;;;;;;17.59;78.44;94981.38;4971106;28;20197;-79
2022/09/08 02:07:34;;;;;;;7.00;5.30;;;;;;;17.52;78.64;94963.16;4970832;28;20240;-81
2022/09/08 02:10:02;;;;;;;6.83;5.13;;;;;;;17.38;79.30;94940.66;4971011;28;20190;-78
2022/09/08 02:12:29;;;;;;;6.07;5.20;;;;;;;17.59;79.02;94965.88;4971082;28;20202;-80
2022/09/08 02:14:56;;;;;;;7.27;4.97;;;;;;;17.38;79.03;94934.69;4970753;28;20230;-79
2022/09/08 02:17:23;;;;;;;6.13;5.53;;;;;;;17.55;79.34;94970.56;4971804;28;20646;-79
2022/09/08 02:19:51;;;;;;;5.77;5.27;;;;;;;17.57;79.14;94970.38;4971110;28;20657;-79
2022/09/08 02:22:18;;;;;;;6.47;5.87;;;;;;;17.58;79.01;94966.03;4971312;28;20307;-79
2022/09/08 02:24:45;;;;;;;7.50;5.50;;;;;;;17.55;79.14;94967.19;4971157;28;20189;-79
2022/09/08 02:27:12;;;;;;;5.17;4.67;;;;;;;17.59;78.80;94965.06;4970682;28;20248;-79
2022/09/08 02:29:39;;;;;;;6.20;5.50;;;;;;;17.52;78.82;94963.16;4970549;28;20555;-79
2022/09/08 02:32:06;;;;;;;14.67;6.33;;;;;;;17.51;78.82;94968.50;4970755;28;20190;-81
2022/09/08 02:34:33;;;;;;;8.77;5.40;;;;;;;17.28;79.22;94937.50;4970625;28;20249;-80
2022/09/08 02:37:01;;;;;;;6.10;5.23;;;;;;;17.45;78.87;94966.63;4970511;28;20650;-79
2022/09/08 02:39:28;;;;;;;6.87;5.30;;;;;;;17.16;78.88;94924.16;4970837;28;20561;-79
2022/09/08 02:41:55;;;;;;;6.57;5.63;;;;;;;17.36;79.42;94963.28;4970407;28;20193;-78
2022/09/08 02:44:22;;;;;;;8.07;5.83;;;;;;;17.36;79.81;94968.47;4970556;28;20268;-78
2022/09/08 02:46:49;;;;;;;6.50;5.47;;;;;;;16.64;79.49;94857.63;4970439;28;20241;-78
2022/09/08 02:49:16;;;;;;;9.27;5.70;;;;;;;17.12;79.57;94942.78;4970480;28;20189;-77
2022/09/08 02:51:43;;;;;;;5.80;5.30;;;;;;;16.51;79.64;94847.88;4970086;28;20530;-80
2022/09/08 02:54:11;;;;;;;5.47;4.97;;;;;;;17.28;79.73;94974.50;4970504;28;20638;-80
2022/09/08 02:56:38;;;;;;;6.40;5.37;;;;;;;17.20;80.00;94955.66;4970078;28;20201;-78
2022/09/08 02:59:05;;;;;;;6.80;6.17;;;;;;;17.26;79.85;94962.69;4970496;28;20233;-77
2022/09/08 03:01:32;;;;;;;6.50;5.90;;;;;;;16.63;79.85;94868.94;4970237;28;20194;-78
2022/09/08 03:03:59;;;;;;;12.87;5.77;;;;;;;17.24;79.72;94959.50;4970302;28;20529;-79
2022/09/08 03:06:28;;;;;;;7.60;5.80;;;;;;;16.78;79.96;94893.06;4970044;28;20185;-79
2022/09/08 03:08:55;;;;;;;7.87;5.80;;;;;;;17.22;79.98;94962.25;4970882;28;20217;-80
2022/09/08 03:11:24;;;;;;;12.23;6.17;;;;;;;16.74;80.32;94891.00;4973512;28;20761;-81
2022/09/08 03:13:51;;;;;;;6.63;5.43;;;;;;;17.11;80.16;94952.31;4975845;28;20190;-79
2022/09/08 03:16:17;;;;;;;6.77;5.67;;;;;;;17.16;80.12;94964.72;4975959;28;20233;-79
2022/09/08 03:18:46;;;;;;;6.80;5.73;;;;;;;17.15;80.48;94963.13;4975192;28;20195;-80
2022/09/08 03:21:15;;;;;;;6.57;5.47;;;;;;;17.00;80.78;94938.00;4980175;28;20190;-81
2022/09/08 03:23:42;;;;;;;8.57;5.83;;;;;;;17.17;80.51;94963.75;4975836;28;20241;-79
2022/09/08 03:26:14;;;;;;;6.07;5.47;;;;;;;17.14;80.61;94967.47;4975458;28;20236;-79
2022/09/08 03:29:14;;;;;;;5.77;5.23;;;;;;;17.13;80.50;94973.59;4976001;28;20704;-78
2022/09/08 03:31:41;;;;;;;7.83;5.53;;;;;;;17.09;80.62;94971.53;4984065;28;20190;-79
2022/09/08 03:34:08;;;;;;;7.87;5.93;;;;;;;16.78;80.87;94933.59;4984636;28;20197;-79
2022/09/08 03:36:35;;;;;;;6.37;5.30;;;;;;;17.03;80.62;94983.38;4983621;28;20189;-78
2022/09/08 03:39:04;;;;;;;7.27;6.50;;;;;;;17.02;80.83;94974.00;4985214;28;20197;-81
2022/09/08 03:41:33;;;;;;;8.17;5.63;;;;;;;16.90;80.53;94959.88;4982893;28;20194;-80
2022/09/08 03:44:00;;;;;;;6.77;5.63;;;;;;;16.84;80.19;94956.19;4981761;28;20193;-80
2022/09/08 03:46:35;;;;;;;12.33;5.67;;;;;;;16.78;80.61;94947.31;4974920;28;20215;-81
2022/09/08 03:49:09;;;;;;;8.00;6.07;;;;;;;16.79;80.32;94951.50;4975878;28;20192;-79
2022/09/08 03:51:36;;;;;;;6.97;5.73;;;;;;;16.91;80.93;94969.22;4975062;28;20193;-80
2022/09/08 03:56:53;;;;;;;10.87;6.03;;;;;;;16.83;81.14;94967.47;4976094;28;20193;-78
2022/09/08 03:59:23;;;;;;;6.93;5.43;;;;;;;16.88;81.40;94969.53;4973798;28;20228;-80
2022/09/08 04:01:53;;;;;;;9.20;5.50;;;;;;;16.93;81.13;94975.03;4973979;28;20208;-79
2022/09/08 04:04:23;;;;;;;12.47;6.00;;;;;;;16.65;81.20;94939.28;4973804;28;20193;-78
2022/09/08 04:06:50;;;;;;;10.87;5.67;;;;;;;16.58;80.99;94935.78;4973819;28;20204;-80
2022/09/08 04:09:17;;;;;;;7.40;6.60;;;;;;;17.01;80.34;94995.63;4973641;28;20674;-80
2022/09/08 04:11:44;;;;;;;10.20;5.90;;;;;;;16.54;80.63;94926.78;4973463;28;20204;-78
2022/09/08 04:14:11;;;;;;;16.33;6.60;;;;;;;16.91;80.95;94993.28;4973330;28;20219;-80
2022/09/08 04:16:38;;;;;;;7.63;6.23;;;;;;;16.69;81.04;94961.22;4972967;28;20221;-78
2022/09/08 04:19:06;;;;;;;9.53;6.70;;;;;;;16.74;81.35;94965.91;4973809;28;20230;-80
2022/09/08 04:21:34;;;;;;;10.57;6.77;;;;;;;16.86;81.13;94989.59;4972836;28;20198;-80
2022/09/08 04:24:01;;;;;;;8.43;5.80;;;;;;;16.94;80.51;94989.56;4973852;28;20185;-78
2022/09/08 04:26:28;;;;;;;7.03;6.33;;;;;;;16.90;79.38;94972.78;4981910;28;20186;-78
2022/09/08 04:28:54;;;;;;;10.00;5.97;;;;;;;16.96;78.80;94967.72;4985204;28;20716;-80
2022/09/08 04:31:22;;;;;;;8.43;5.10;;;;;;;16.90;78.62;94960.66;4991064;28;20285;-79
2022/09/08 04:33:49;;;;;;;7.77;5.73;;;;;;;17.08;78.50;94982.84;4992468;28;20611;-79
2022/09/08 04:36:19;;;;;;;10.83;6.70;;;;;;;16.92;79.22;94968.25;4992822;28;20181;-80
2022/09/08 04:38:46;;;;;;;7.60;6.37;;;;;;;16.90;79.42;94970.19;4992434;28;20204;-78
2022/09/08 04:41:18;;;;;;;7.80;6.13;;;;;;;16.89;79.65;94971.19;4992366;28;20197;-78
2022/09/08 04:43:45;;;;;;;10.80;7.07;;;;;;;16.94;80.23;94987.78;4991995;28;20553;-78
2022/09/08 04:46:13;;;;;;;9.37;6.87;;;;;;;16.95;80.35;94994.53;4986163;28;20648;-80
2022/09/08 04:48:42;;;;;;;13.03;6.87;;;;;;;17.08;79.53;94986.25;4976829;28;20201;-78
2022/09/08 04:51:10;;;;;;;8.20;7.40;;;;;;;17.20;78.78;94978.91;4983267;28;20201;-79
2022/09/08 04:53:38;;;;;;;18.67;8.17;;;;;;;17.14;79.16;94982.16;4978379;28;20190;-79
2022/09/08 04:56:07;;;;;;;9.37;6.83;;;;;;;17.14;78.34;94995.09;4992364;28;20216;-80
2022/09/08 04:58:36;;;;;;;15.67;8.07;;;;;;;17.22;78.33;94993.25;4991740;28;20256;-79
2022/09/08 05:01:04;;;;;;;10.00;6.60;;;;;;;17.30;78.38;94979.47;4983475;28;20185;-79
2022/09/08 05:03:31;;;;;;;10.03;6.57;;;;;;;17.25;78.93;94982.59;4986771;28;20216;-78
2022/09/08 05:06:04;;;;;;;14.53;7.50;;;;;;;17.23;78.75;94978.56;4990510;28;20219;-81
2022/09/08 05:08:31;;;;;;;11.23;6.47;;;;;;;17.54;77.66;94999.19;4992862;28;20704;-82
2022/09/08 05:10:59;;;;;;;7.50;6.70;;;;;;;17.60;77.42;95001.09;4991023;28;20589;-78
2022/09/08 05:13:26;;;;;;;9.73;6.63;;;;;;;17.72;76.80;95007.47;4990595;28;20200;-78
2022/09/08 05:15:53;;;;;;;11.67;7.10;;;;;;;17.84;76.00;95010.47;4990641;28;20327;-79
2022/09/08 05:18:22;;;;;;;10.57;6.80;;;;;;;17.79;75.86;94992.09;4989953;28;20193;-78
2022/09/08 05:20:54;;;;;;;9.87;6.17;;;;;;;17.85;75.48;94964.72;4990590;28;20610;-80
2022/09/08 05:23:21;;;;;;;11.40;6.13;;;;;;;18.35;74.06;95005.47;4990276;28;20212;-80
2022/09/08 05:25:56;;;;;;;7.73;5.73;;;;;;;18.49;72.47;95017.63;4989883;28;20233;-76
2022/09/08 05:28:27;;;;;;;7.17;5.77;;;;;;;18.61;71.99;95022.34;4987365;28;20243;-78
2022/09/08 05:30:54;;;;;;;10.13;6.17;;;;;;;18.63;71.92;95018.59;4987182;28;20189;-80
2022/09/08 05:33:22;;;;;;;9.33;6.67;;;;;;;18.79;71.35;95025.44;4987940;28;20615;-79
2022/09/08 05:35:49;;;;;;;11.13;6.23;;;;;;;18.67;70.74;94973.22;4990537;28;20196;-80
2022/09/08 05:38:16;;;;;;;11.57;5.87;;;;;;;18.71;71.09;94945.19;4990163;28;20208;-79
2022/09/08 05:40:43;;;;;;;10.93;6.90;;;;;;;19.30;68.90;95021.03;4990258;28;20197;-79
2022/09/08 05:43:10;;;;;;;8.00;5.80;;;;;;;19.45;69.27;95015.00;4985659;28;20233;-78
2022/09/08 05:45:38;;;;;;;10.77;6.30;;;;;;;19.57;68.53;95018.72;4986980;28;20660;-78
2022/09/08 05:48:05;;;;;;;8.77;6.07;;;;;;;19.68;67.86;95012.25;4990352;28;20217;-78
2022/09/08 05:50:34;;;;;;;9.40;5.93;;;;;;;19.56;67.67;94970.41;4989732;28;20196;-78
2022/09/08 05:53:01;;;;;;;7.53;6.03;;;;;;;19.93;67.50;95016.06;4993470;28;20208;-77
2022/09/08 05:55:29;;;;;;;12.33;6.93;;;;;;;20.02;66.27;95014.94;4989833;28;20197;-79
2022/09/08 05:57:56;;;;;;;8.93;6.53;;;;;;;19.81;65.58;94978.63;4990425;28;20193;-80
2022/09/08 06:00:23;;;;;;;7.80;5.93;;;;;;;19.97;66.10;94996.53;4990112;28;20225;-79
2022/09/08 06:02:52;;;;;;;8.00;5.93;;;;;;;20.31;65.48;95015.75;4990229;28;20197;-80
2022/09/08 06:05:20;;;;;;;10.23;7.17;;;;;;;20.33;64.17;95021.53;4990316;28;20208;-80
2022/09/08 06:07:47;;;;;;;10.30;5.47;;;;;;;20.39;64.59;95020.00;4990355;28;20224;-80
2022/09/08 06:10:14;;;;;;;9.68;5.97;;;;;;;20.50;64.03;95014.28;4990368;28;20208;-79
2022/09/08 06:12:44;;;;;;;8.13;5.77;;;;;;;20.40;64.05;95006.00;4991677;28;20189;-80
2022/09/08 06:15:12;;;;;;;8.60;5.95;;;;;;;20.15;64.12;94948.50;4991375;28;20236;-80
2022/09/08 06:17:39;;;;;;;12.52;6.18;;;;;;;20.77;64.17;95028.25;4991926;28;20243;-81
2022/09/08 06:20:09;;;;;;;8.75;5.68;;;;;;;20.95;64.42;95030.34;4990621;28;20200;-79
2022/09/08 06:22:36;;;;;;;11.18;6.15;;;;;;;21.05;63.19;95033.38;4989973;28;20256;-81
2022/09/08 06:25:03;;;;;;;13.20;6.10;;;;;;;21.20;63.09;95028.00;4982861;28;20288;-80
2022/09/08 06:27:42;;;;;;;10.05;6.40;;;;;;;21.41;62.92;95030.50;4989797;28;20201;-80
2022/09/08 06:30:11;;;;;;;10.95;7.82;;;;;;;21.60;61.59;95036.78;4988528;28;20208;-78
2022/09/08 06:32:43;;;;;;;13.48;6.35;;;;;;;21.70;60.09;95034.59;4990080;28;20232;-78
2022/09/08 06:35:17;;;;;;;14.98;6.65;;;;;;;21.67;59.84;95036.78;4989842;28;20691;-79
2022/09/08 06:37:48;;;;;;;11.82;5.93;;;;;;;21.72;60.66;95042.22;4990554;28;20192;-79
2022/09/08 06:40:22;;;;;;;8.27;6.40;;;;;;;21.76;60.67;95049.44;4987582;28;20230;-79
2022/09/08 06:42:55;;;;;;;11.52;6.43;;;;;;;21.82;60.11;95053.03;4990145;28;20204;-79
2022/09/08 06:45:27;;;;;;;11.13;6.55;;;;;;;21.65;60.02;95013.56;4989497;28;20624;-78
2022/09/08 06:48:21;;;;;;;7.90;6.03;;;;;;;22.09;60.98;95043.44;4987975;28;20272;-79
2022/09/08 06:51:03;;;;;;;9.90;6.80;;;;;;;22.31;57.89;95049.25;5002911;28;20209;-77
2022/09/08 06:53:35;;;;;;;10.23;5.88;;;;;;;22.12;57.53;95010.97;4998320;28;20200;-79
2022/09/08 06:56:13;;;;;;;6.97;5.82;;;;;;;22.41;57.24;95054.06;4979130;28;20196;-79
2022/09/08 06:58:41;;;;;;;13.30;6.30;;;;;;;22.45;57.65;95052.66;4989735;28;20228;-78
2022/09/08 07:01:18;;;;;;;11.52;5.28;;;;;;;22.38;57.78;94994.53;4989440;28;20200;-79
2022/09/08 07:04:02;;;;;;;10.30;5.32;;;;;;;22.76;57.64;95049.41;4989733;28;20189;-79
2022/09/08 07:06:35;;;;;;;8.48;6.07;;;;;;;22.48;57.09;95007.94;4987286;28;20942;-79
2022/09/08 07:09:10;;;;;;;13.93;6.05;;;;;;;22.88;56.72;95050.38;4983681;28;20224;-78
2022/09/08 07:11:51;;;;;;;13.93;6.18;;;;;;;22.76;55.63;95054.63;4989521;28;20188;-78
2022/09/08 07:14:41;;;;;;;19.75;6.63;;;;;;;22.91;55.92;95057.81;4988705;28;20197;-78
2022/09/08 07:17:14;;;;;;;9.15;6.53;;;;;;;22.98;55.34;95047.38;4987216;28;20177;-79
2022/09/08 07:19:49;;;;;;;12.00;6.63;;;;;;;23.10;54.77;95052.75;4988783;28;20218;-80
2022/09/08 07:22:31;;;;;;;11.25;6.10;;;;;;;23.24;54.85;95062.13;4989412;28;20220;-79
2022/09/08 07:25:07;;;;;;;12.15;6.10;;;;;;;23.08;54.78;95041.72;4985874;28;20673;-78
2022/09/08 07:27:35;;;;;;;9.77;5.72;;;;;;;23.22;53.85;95064.94;4987485;28;20200;-79
2022/09/08 07:30:05;;;;;;;8.65;5.88;;;;;;;23.13;54.15;95044.50;4980789;28;20224;-78
2022/09/08 07:32:36;;;;;;;8.25;5.78;;;;;;;23.42;54.51;95051.81;4989013;28;20201;-78
2022/09/08 07:35:06;;;;;;;6.63;5.88;;;;;;;23.62;53.85;95038.66;4981596;28;20193;-78
2022/09/08 07:37:42;;;;;;;12.02;6.13;;;;;;;23.97;53.61;95053.94;4988840;28;20521;-79
2022/09/08 07:40:17;;;;;;;9.82;5.30;;;;;;;24.01;52.07;95019.34;4989343;28;20212;-78
2022/09/08 07:42:48;;;;;;;16.90;6.13;;;;;;;24.46;52.89;95058.38;4989128;28;20697;-78
2022/09/08 07:45:15;;;;;;;6.35;4.80;;;;;;;24.59;51.19;95054.06;4988818;28;20193;-79
2022/09/08 07:48:02;;;;;;;8.02;5.95;;;;;;;24.63;50.93;95058.63;4988783;28;20225;-79
2022/09/08 07:53:45;;;;;;;9.75;5.13;;;;;;;24.57;50.94;95053.44;4988873;28;20216;-78
2022/09/08 07:56:15;;;;;;;8.02;5.90;;;;;;;24.50;51.42;95038.63;4981486;28;20275;-78
2022/09/08 07:58:52;;;;;;;11.57;5.30;;;;;;;24.62;51.59;95045.78;4991937;28;20207;-79
2022/09/08 08:01:32;;;;;;;9.95;5.03;;;;;;;24.63;51.21;95032.47;4991111;28;20292;-78
2022/09/08 08:04:14;;;;;;;8.95;5.32;;;;;;;24.61;51.55;94995.28;5003896;28;20216;-77
2022/09/08 08:06:47;;;;;;;13.48;5.50;;;;;;;24.96;49.76;95039.19;4999376;28;20213;-80
2022/09/08 08:09:27;;;;;;;11.50;5.32;;;;;;;24.94;50.47;95043.81;4992247;28;20229;-78
2022/09/08 08:12:01;;;;;;;7.35;4.90;;;;;;;24.84;50.86;95046.16;4992288;28;20679;-78
2022/09/08 08:14:37;;;;;;;7.55;4.78;;;;;;;24.86;50.92;95051.97;4991774;28;20272;-79
2022/09/08 08:17:21;;;;;;;7.88;5.38;;;;;;;24.95;50.21;95050.66;4990193;28;20650;-79
2022/09/08 08:20:07;;;;;;;6.45;4.95;;;;;;;24.90;50.06;95034.81;4988894;28;20676;-78
2022/09/08 08:22:49;;;;;;;7.75;5.13;;;;;;;24.94;50.88;95022.91;4991823;28;20189;-78
2022/09/08 08:25:23;;;;;;;7.45;5.13;;;;;;;25.19;49.26;95033.31;4992045;28;20255;-79
2022/09/08 08:28:01;;;;;;;9.57;4.85;;;;;;;25.40;49.59;95055.59;4991891;28;20283;-78
2022/09/08 08:30:28;;;;;;;9.07;5.40;;;;;;;25.47;49.27;95049.25;4990528;28;20193;-78
2022/09/08 08:33:00;;;;;;;11.13;5.47;;;;;;;25.53;49.43;95052.81;4991275;28;20201;-78
2022/09/08 08:35:32;;;;;;;10.52;4.88;;;;;;;25.46;49.08;95045.03;4991630;28;20189;-79
2022/09/08 08:38:00;;;;;;;6.68;4.45;;;;;;;25.50;47.74;95040.16;4991008;28;20197;-78
2022/09/08 08:40:46;;;;;;;9.77;5.25;;;;;;;25.26;49.21;94981.69;4991266;28;20212;-78
2022/09/08 08:43:33;;;;;;;9.80;4.95;;;;;;;25.61;49.32;95031.56;4991261;28;20189;-77
2022/09/08 08:46:19;;;;;;;11.20;5.18;;;;;;;25.57;49.51;95011.28;4971219;28;20597;-78
2022/09/08 08:48:59;;;;;;;6.28;5.18;;;;;;;25.74;49.37;95012.22;4991249;28;20209;-78
2022/09/08 08:51:59;;;;;;;9.65;5.28;;;;;;;25.93;49.67;95013.78;4986384;28;20219;-77
2022/09/08 08:54:43;;;;;;;9.05;4.78;;;;;;;25.84;49.39;94972.41;4988630;28;20664;-78
2022/09/08 08:57:36;;;;;;;8.40;5.10;;;;;;;26.26;48.75;95009.81;4992163;28;20196;-77
2022/09/08 09:00:13;;;;;;;7.47;5.05;;;;;;;26.20;47.87;94984.50;4987584;28;20669;-77
2022/09/08 09:03:05;;;;;;;7.38;4.93;;;;;;;26.23;47.66;95003.19;4988798;28;20208;-77
2022/09/08 09:05:58;;;;;;;8.80;5.47;;;;;;;26.18;47.68;94992.59;4991420;28;20725;-78
2022/09/08 09:08:58;;;;;;;8.43;5.07;;;;;;;26.11;48.04;94984.03;4971138;28;20209;-79
2022/09/08 09:11:52;;;;;;;8.68;4.65;;;;;;;26.08;47.84;94981.91;4986440;28;20189;-76
2022/09/08 09:14:43;;;;;;;10.82;4.68;;;;;;;26.12;48.77;94971.72;4991425;28;20220;-78
2022/09/08 09:17:25;;;;;;;7.63;5.35;;;;;;;26.04;47.81;94951.91;4991039;28;20196;-79
2022/09/08 09:20:16;;;;;;;10.15;4.47;;;;;;;26.07;47.94;94969.78;4990438;28;20551;-78
2022/09/08 09:22:53;;;;;;;6.90;4.53;;;;;;;26.08;48.61;94957.47;4991361;28;20197;-78
2022/09/08 09:25:28;;;;;;;5.50;4.40;;;;;;;25.90;48.44;94916.44;4991567;28;20649;-78
2022/09/08 09:28:16;;;;;;;6.45;4.40;;;;;;;26.03;47.96;94916.22;4990965;28;20201;-78
2022/09/08 09:30:56;;;;;;;8.55;4.88;;;;;;;26.30;48.42;94952.47;4990775;28;20257;-79
2022/09/08 09:33:47;;;;;;;7.28;4.25;;;;;;;26.36;48.42;94948.94;4987500;28;20192;-79
2022/09/08 09:36:40;;;;;;;7.72;4.35;;;;;;;26.44;47.14;94931.06;4990503;28;20196;-77
2022/09/08 09:39:39;;;;;;;5.00;4.50;;;;;;;26.57;47.56;94945.75;4988959;28;20197;-79
2022/09/08 09:42:43;;;;;;;6.75;4.20;;;;;;;26.66;46.75;94946.19;4982564;28;20197;-77
2022/09/08 09:45:31;;;;;;;8.07;4.43;;;;;;;26.53;45.79;94918.38;4990409;28;20204;-78
2022/09/08 09:48:36;;;;;;;7.68;3.90;;;;;;;26.63;46.62;94936.94;4990471;28;20640;-78
2022/09/08 09:51:29;;;;;;;5.00;3.95;;;;;;;26.52;46.41;94916.78;4917516;29;20198;-79
2022/09/08 09:54:23;;;;;;;5.60;4.47;;;;;;;26.60;47.28;94932.19;4927489;29;20254;-78
2022/09/08 09:57:19;;;;;;;5.32;4.13;;;;;;;26.67;46.60;94930.19;4926213;29;20195;-79
2022/09/08 10:00:14;;;;;;;5.85;4.38;;;;;;;26.71;46.18;94923.47;4929438;29;20695;-78
2022/09/08 10:03:16;;;;;;;6.00;4.20;;;;;;;26.71;46.95;94912.16;4921573;29;20199;-77
2022/09/08 10:06:30;;;;;;;8.25;3.70;;;;;;;26.74;48.57;94911.72;4929416;29;20198;-78
2022/09/08 10:09:29;;;;;;;5.93;4.50;;;;;;;26.72;48.26;94900.63;4834036;29;20816;-79
2022/09/08 10:12:23;;;;;;;5.10;3.92;;;;;;;26.76;48.16;94899.94;4836395;29;20722;-78
2022/09/08 10:15:40;;;;;;;5.03;4.18;;;;;;;26.75;47.12;94892.31;4835461;29;20260;-78
2022/09/08 10:18:48;;;;;;;5.38;3.95;;;;;;;26.69;46.78;94886.16;4799272;29;20235;-77
2022/09/08 10:21:53;;;;;;;5.28;3.85;;;;;;;26.71;46.23;94880.69;4799286;29;20200;-78
2022/09/08 10:24:53;;;;;;;5.80;4.35;;;;;;;26.76;46.01;94880.78;4799475;29;20214;-78
2022/09/08 10:27:48;;;;;;;6.18;4.47;;;;;;;26.60;46.12;94857.88;4744569;30;20202;-80
2022/09/08 10:30:21;;;;;;;6.90;4.38;;;;;;;26.67;46.93;94869.84;4747474;30;20252;-77
2022/09/08 10:33:05;;;;;;;4.97;4.45;;;;;;;26.73;46.26;94868.94;4758386;30;20226;-78
2022/09/08 10:35:38;;;;;;;4.45;3.83;;;;;;;26.75;46.34;94861.59;4755720;30;20955;-78
2022/09/08 10:38:44;;;;;;;4.43;3.80;;;;;;;26.63;46.24;94852.19;4756889;30;20768;-77
2022/09/08 10:41:56;;;;;;;5.10;4.28;;;;;;;26.59;46.58;94851.06;4741719;30;20205;-79
2022/09/08 10:44:43;;;;;;;7.63;4.55;;;;;;;26.58;47.35;94858.13;4745403;29;20622;-80
2022/09/08 10:47:48;;;;;;;5.47;4.40;;;;;;;26.49;47.58;94852.47;4809478;29;20210;-80
2022/09/08 10:50:19;;;;;;;7.63;4.57;;;;;;;26.33;47.72;94852.34;4816213;29;20305;-78
2022/09/08 10:53:07;;;;;;;5.55;3.92;;;;;;;26.45;48.21;94858.41;4817602;29;20572;-78
2022/09/08 10:56:00;;;;;;;7.15;4.47;;;;;;;26.59;47.64;94856.31;4832871;29;20217;-78
2022/09/08 10:58:56;;;;;;;7.05;4.65;;;;;;;26.67;47.97;94851.47;4832854;29;20202;-79
2022/09/08 11:01:54;;;;;;;6.22;4.30;;;;;;;26.49;48.09;94815.75;4833616;29;20198;-79
2022/09/08 11:05:14;;;;;;;9.90;4.25;;;;;;;26.71;47.36;94852.59;4865125;29;20286;-79
2022/09/08 11:08:00;;;;;;;5.88;4.63;;;;;;;26.79;47.37;94842.78;4909543;29;20199;-78
2022/09/08 11:10:46;;;;;;;4.22;3.83;;;;;;;26.85;47.39;94845.25;4905576;29;20313;-79
2022/09/08 11:13:26;;;;;;;6.70;5.00;;;;;;;26.90;47.16;94840.13;4908297;29;20188;-79
2022/09/08 11:16:38;;;;;;;6.35;4.25;;;;;;;26.93;47.45;94834.38;4910164;29;20223;-78
2022/09/08 11:19:38;;;;;;;5.97;4.50;;;;;;;26.84;47.04;94822.66;4968672;28;20229;-79
2022/09/08 11:22:14;;;;;;;8.20;4.63;;;;;;;26.88;47.59;94830.88;4890085;29;20205;-78
2022/09/08 11:24:51;;;;;;;8.52;5.07;;;;;;;26.88;47.25;94831.66;4888951;29;20191;-79
2022/09/08 11:27:28;;;;;;;10.15;5.28;;;;;;;26.56;47.73;94791.22;4890088;29;20209;-79
2022/09/08 11:30:20;;;;;;;9.20;4.82;;;;;;;26.92;48.02;94834.63;4893502;29;20227;-78
2022/09/08 11:33:01;;;;;;;4.50;4.10;;;;;;;26.99;47.64;94832.66;4892430;29;20232;-80
2022/09/08 11:35:45;;;;;;;6.15;4.47;;;;;;;27.01;47.02;94833.19;4894611;29;20185;-79
2022/09/08 11:38:28;;;;;;;4.88;4.47;;;;;;;27.09;46.63;94832.84;4892768;29;20196;-79
2022/09/08 11:41:29;;;;;;;6.75;4.47;;;;;;;27.14;46.75;94834.75;4893776;29;20203;-78
2022/09/08 11:44:05;;;;;;;5.40;4.50;;;;;;;27.08;47.58;94839.09;4890439;29;20204;-80
2022/09/08 11:46:56;;;;;;;9.05;4.88;;;;;;;27.11;47.61;94837.84;4894610;29;20348;-78
2022/09/08 11:50:00;;;;;;;5.82;4.50;;;;;;;27.07;47.46;94840.13;4894699;29;20790;-79
2022/09/08 11:52:44;;;;;;;7.85;4.75;;;;;;;27.08;47.29;94833.06;4888675;29;20200;-79
2022/09/08 11:55:39;;;;;;;6.57;4.70;;;;;;;27.16;47.32;94833.50;4893845;29;20193;-79
2022/09/08 11:58:21;;;;;;;7.70;4.60;;;;;;;27.26;46.90;94830.22;4903049;28;20200;-79
2022/09/08 12:01:05;;;;;;;7.10;5.00;;;;;;;27.33;46.97;94825.63;4970805;28;20194;-78
2022/09/08 12:03:43;;;;;;;7.95;4.72;;;;;;;27.29;47.22;94813.19;4972475;28;20193;-78
2022/09/08 12:06:58;;;;;;;6.93;4.22;;;;;;;27.39;47.05;94823.88;4973779;28;20190;-79
2022/09/08 12:10:03;;;;;;;4.95;4.32;;;;;;;27.46;47.45;94819.22;4913390;29;20296;-77
2022/09/08 12:12:54;;;;;;;5.75;5.10;;;;;;;27.40;47.41;94805.22;4856851;29;20276;-79
2022/09/08 12:15:42;;;;;;;7.75;4.47;;;;;;;27.57;46.80;94820.19;4863146;29;20232;-78
2022/09/08 12:18:21;;;;;;;7.13;4.63;;;;;;;27.40;46.76;94799.97;4889641;29;20228;-78
2022/09/08 12:21:04;;;;;;;6.78;4.43;;;;;;;27.61;46.86;94821.31;4886430;29;20200;-78
2022/09/08 12:23:45;;;;;;;6.05;4.57;;;;;;;27.67;46.63;94826.38;4883904;29;20204;-79
2022/09/08 12:26:33;;;;;;;6.38;4.35;;;;;;;27.63;46.84;94808.72;4888013;29;20208;-79
2022/09/08 12:29:23;;;;;;;6.00;5.07;;;;;;;27.73;46.57;94824.66;4890669;29;20193;-79